createdAt,value
2022-07-31T00:02:03.326Z,1009.20
2022-07-31T00:05:10.945Z,1009.29
2022-07-31T00:08:19.199Z,1009.27
2022-07-31T00:11:26.576Z,1009.28
2022-07-31T00:14:34.740Z,1009.20
2022-07-31T00:17:42.520Z,1009.16
2022-07-31T00:20:50.110Z,1009.14
2022-07-31T00:23:58.191Z,1009.21
2022-07-31T00:27:07.382Z,1009.18
2022-07-31T00:30:15.482Z,1009.15
2022-07-31T00:33:23.638Z,1009.00
2022-07-31T00:36:31.075Z,1009.07
2022-07-31T00:39:39.309Z,1009.08
2022-07-31T00:42:47.458Z,1009.14
2022-07-31T00:45:47.201Z,1009.18
2022-07-31T00:48:53.077Z,1009.19
2022-07-31T00:52:00.880Z,1009.26
2022-07-31T00:55:08.650Z,1009.28
2022-07-31T00:58:16.841Z,1009.21
2022-07-31T01:01:24.717Z,1009.34
2022-07-31T01:04:32.514Z,1009.27
2022-07-31T01:07:40.710Z,1009.29
2022-07-31T01:10:48.459Z,1009.37
2022-07-31T01:13:56.085Z,1009.41
2022-07-31T01:17:04.187Z,1009.50
2022-07-31T01:20:12.439Z,1009.46
2022-07-31T01:23:20.152Z,1009.48
2022-07-31T01:26:27.781Z,1009.50
2022-07-31T01:29:35.991Z,1009.51
2022-07-31T01:32:43.344Z,1009.43
2022-07-31T01:35:51.444Z,1009.44
2022-07-31T01:38:59.479Z,1009.46
2022-07-31T01:42:07.011Z,1009.43
2022-07-31T01:45:14.883Z,1009.46
2022-07-31T01:48:23.058Z,1009.43
2022-07-31T01:51:30.449Z,1009.44
2022-07-31T01:54:38.477Z,1009.48
2022-07-31T01:57:46.481Z,1009.56
2022-07-31T02:00:54.109Z,1009.48
2022-07-31T02:04:02.863Z,1009.44
2022-07-31T02:07:10.185Z,1009.40
2022-07-31T02:10:18.303Z,1009.31
2022-07-31T02:13:26.105Z,1009.35
2022-07-31T02:16:33.846Z,1009.33
2022-07-31T02:19:59.857Z,1009.36
2022-07-31T02:22:47.508Z,1009.29
2022-07-31T02:25:55.259Z,1009.29
2022-07-31T02:29:04.351Z,1009.28
2022-07-31T02:32:12.141Z,1009.32
2022-07-31T02:35:20.125Z,1009.30
2022-07-31T02:38:27.840Z,1009.34
2022-07-31T02:41:35.876Z,1009.31
2022-07-31T02:44:43.692Z,1009.32
2022-07-31T02:47:51.518Z,1009.25
2022-07-31T02:50:59.503Z,1009.30
2022-07-31T02:54:07.140Z,1009.29
2022-07-31T02:57:14.898Z,1009.27
2022-07-31T03:00:23.215Z,1009.20
2022-07-31T03:03:30.580Z,1009.31
2022-07-31T03:06:38.611Z,1009.19
2022-07-31T03:09:46.930Z,1009.21
2022-07-31T03:12:54.265Z,1009.15
2022-07-31T03:16:02.334Z,1009.08
2022-07-31T03:19:10.268Z,1009.14
2022-07-31T03:22:17.597Z,1009.13
2022-07-31T03:25:25.637Z,1009.10
2022-07-31T03:28:33.230Z,1009.10
2022-07-31T03:31:41.599Z,1009.04
2022-07-31T03:34:49.792Z,1009.08
2022-07-31T03:37:57.183Z,1009.08
2022-07-31T03:41:04.940Z,1009.13
2022-07-31T03:44:12.803Z,1009.20
2022-07-31T03:47:20.274Z,1009.19
2022-07-31T03:50:28.714Z,1009.08
2022-07-31T03:53:36.443Z,1009.03
2022-07-31T03:56:45.027Z,1009.07
2022-07-31T03:59:53.518Z,1009.04
2022-07-31T04:03:01.303Z,1009.06
2022-07-31T04:06:08.831Z,1009.12
2022-07-31T04:09:19.093Z,1009.15
2022-07-31T04:12:26.905Z,1009.19
2022-07-31T04:15:34.627Z,1009.30
2022-07-31T04:18:42.713Z,1009.32
2022-07-31T04:21:46.972Z,1009.29
2022-07-31T04:24:54.344Z,1009.28
2022-07-31T04:28:01.976Z,1009.26
2022-07-31T04:31:10.217Z,1009.25
2022-07-31T04:34:18.067Z,1009.22
2022-07-31T04:37:25.678Z,1009.21
2022-07-31T04:40:33.819Z,1009.18
2022-07-31T04:43:41.360Z,1009.19
2022-07-31T04:46:49.902Z,1009.12
2022-07-31T04:49:57.912Z,1009.06
2022-07-31T04:53:07.092Z,1009.09
2022-07-31T04:56:14.941Z,1009.12
2022-07-31T04:59:23.139Z,1009.09
2022-07-31T05:02:30.355Z,1009.14
2022-07-31T05:05:38.399Z,1009.10
2022-07-31T05:08:46.440Z,1009.09
2022-07-31T05:11:53.699Z,1009.12
2022-07-31T05:15:01.649Z,1009.21
2022-07-31T05:18:09.463Z,1009.26
2022-07-31T05:21:17.167Z,1009.22
2022-07-31T05:24:33.583Z,1009.16
2022-07-31T05:27:32.221Z,1009.17
2022-07-31T05:30:33.077Z,1009.20
2022-07-31T05:33:40.997Z,1009.24
2022-07-31T05:36:48.258Z,1009.28
2022-07-31T05:39:56.029Z,1009.30
2022-07-31T05:43:03.672Z,1009.22
2022-07-31T05:46:11.783Z,1009.22
2022-07-31T05:49:19.675Z,1009.12
2022-07-31T05:52:27.454Z,1009.02
2022-07-31T05:55:35.165Z,1009.00
2022-07-31T05:58:42.935Z,1008.85
2022-07-31T06:01:45.357Z,1008.97
2022-07-31T06:04:53.028Z,1008.96
2022-07-31T06:08:00.790Z,1008.94
2022-07-31T06:11:08.142Z,1008.98
2022-07-31T06:14:16.663Z,1008.94
2022-07-31T06:17:23.844Z,1008.96
2022-07-31T06:20:29.478Z,1008.92
2022-07-31T06:23:37.244Z,1008.93
2022-07-31T06:26:45.076Z,1008.98
2022-07-31T06:29:53.107Z,1008.95
2022-07-31T06:33:00.818Z,1008.88
2022-07-31T06:36:04.336Z,1008.90
2022-07-31T06:39:12.170Z,1008.89
2022-07-31T06:42:19.499Z,1008.84
2022-07-31T06:45:48.898Z,1008.88
2022-07-31T06:48:33.134Z,1008.86
2022-07-31T06:51:40.437Z,1008.74
2022-07-31T06:54:48.438Z,1008.78
2022-07-31T06:57:56.676Z,1008.74
2022-07-31T07:01:03.998Z,1008.69
2022-07-31T07:04:12.060Z,1008.75
2022-07-31T07:07:19.451Z,1008.70
2022-07-31T07:10:27.142Z,1008.71
2022-07-31T07:13:46.477Z,1008.70
2022-07-31T07:16:39.586Z,1008.68
2022-07-31T07:19:49.574Z,1008.61
2022-07-31T07:22:51.606Z,1008.71
2022-07-31T07:25:59.378Z,1008.70
2022-07-31T07:29:07.050Z,1008.59
2022-07-31T07:32:14.580Z,1008.57
2022-07-31T07:35:22.661Z,1008.56
2022-07-31T07:38:30.292Z,1008.60
2022-07-31T07:41:38.193Z,1008.57
2022-07-31T07:44:45.525Z,1008.54
2022-07-31T07:48:06.182Z,1008.59
2022-07-31T07:50:58.577Z,1008.55
2022-07-31T07:54:06.389Z,1008.53
2022-07-31T07:57:14.120Z,1008.46
2022-07-31T08:00:21.474Z,1008.46
2022-07-31T08:03:50.442Z,1008.44
2022-07-31T08:06:34.263Z,1008.46
2022-07-31T08:09:42.276Z,1008.44
2022-07-31T08:12:49.543Z,1008.47
2022-07-31T08:15:57.536Z,1008.45
2022-07-31T08:19:06.238Z,1008.43
2022-07-31T08:22:13.849Z,1008.47
2022-07-31T08:25:21.761Z,1008.37
2022-07-31T08:28:29.632Z,1008.36
2022-07-31T08:31:37.394Z,1008.39
2022-07-31T08:34:45.242Z,1008.37
2022-07-31T08:38:03.729Z,1008.34
2022-07-31T08:40:57.783Z,1008.33
2022-07-31T08:44:05.499Z,1008.27
2022-07-31T08:47:13.449Z,1008.25
2022-07-31T08:50:21.241Z,1008.27
2022-07-31T08:53:28.954Z,1008.27
2022-07-31T08:56:36.962Z,1008.26
2022-07-31T08:59:44.247Z,1008.20
2022-07-31T09:02:52.396Z,1008.13
2022-07-31T09:06:00.469Z,1008.11
2022-07-31T09:09:07.979Z,1008.03
2022-07-31T09:12:15.860Z,1008.05
2022-07-31T09:15:21.014Z,1007.99
2022-07-31T09:18:28.757Z,1007.94
2022-07-31T09:21:36.875Z,1007.88
2022-07-31T09:24:44.233Z,1007.78
2022-07-31T09:27:51.968Z,1007.85
2022-07-31T09:31:00.021Z,1007.72
2022-07-31T09:34:07.916Z,1007.72
2022-07-31T09:37:15.929Z,1007.60
2022-07-31T09:40:24.331Z,1007.60
2022-07-31T09:43:33.372Z,1007.61
2022-07-31T09:46:38.782Z,1007.63
2022-07-31T09:49:46.425Z,1007.56
2022-07-31T09:52:54.389Z,1007.55
2022-07-31T09:56:02.726Z,1007.51
2022-07-31T09:59:11.824Z,1007.52
2022-07-31T10:02:20.895Z,1007.44
2022-07-31T10:05:28.963Z,1007.47
2022-07-31T10:08:37.294Z,1007.36
2022-07-31T10:11:45.715Z,1007.34
2022-07-31T10:14:53.006Z,1007.37
2022-07-31T10:18:00.809Z,1007.39
2022-07-31T10:21:08.879Z,1007.37
2022-07-31T10:24:16.435Z,1007.33
2022-07-31T10:27:24.419Z,1007.30
2022-07-31T10:30:32.663Z,1007.25
2022-07-31T10:33:44.787Z,1007.20
2022-07-31T10:36:42.555Z,1007.18
2022-07-31T10:39:50.326Z,1007.21
2022-07-31T10:42:58.108Z,1007.09
2022-07-31T10:46:06.489Z,1007.01
2022-07-31T10:49:14.386Z,1006.96
2022-07-31T10:52:22.269Z,1006.97
2022-07-31T10:55:30.702Z,1006.95
2022-07-31T10:58:38.774Z,1006.96
2022-07-31T11:01:52.648Z,1006.94
2022-07-31T11:04:50.324Z,1006.90
2022-07-31T11:07:57.748Z,1006.95
2022-07-31T11:11:05.489Z,1006.93
2022-07-31T11:14:13.081Z,1007.01
2022-07-31T11:18:23.735Z,1006.86
2022-07-31T11:20:25.655Z,1006.83
2022-07-31T11:23:33.896Z,1006.79
2022-07-31T11:26:42.353Z,1006.76
2022-07-31T11:29:59.900Z,1006.73
2022-07-31T11:32:54.870Z,1006.66
2022-07-31T11:36:03.000Z,1006.64
2022-07-31T11:39:10.481Z,1006.63
2022-07-31T11:42:18.740Z,1006.56
2022-07-31T11:45:26.635Z,1006.52
2022-07-31T11:48:36.017Z,1006.54
2022-07-31T11:51:35.616Z,1006.55
2022-07-31T11:54:43.037Z,1006.49
2022-07-31T11:57:52.963Z,1006.43
2022-07-31T12:01:01.216Z,1006.37
2022-07-31T12:04:09.376Z,1006.43
2022-07-31T12:07:18.140Z,1006.40
2022-07-31T12:10:25.723Z,1006.34
2022-07-31T12:13:33.652Z,1006.27
2022-07-31T12:16:41.717Z,1006.16
2022-07-31T12:19:49.108Z,1006.03
2022-07-31T12:22:57.862Z,1005.98
2022-07-31T12:26:06.510Z,1005.92
2022-07-31T12:29:14.110Z,1005.85
2022-07-31T12:32:22.213Z,1005.88
2022-07-31T12:35:38.420Z,1005.90
2022-07-31T12:38:44.690Z,1005.86
2022-07-31T12:41:40.499Z,1005.89
2022-07-31T12:44:48.430Z,1005.79
2022-07-31T12:47:56.481Z,1005.73
2022-07-31T12:51:04.374Z,1005.71
2022-07-31T12:54:12.540Z,1005.68
2022-07-31T12:57:20.483Z,1005.66
2022-07-31T13:00:28.158Z,1005.58
2022-07-31T13:03:46.007Z,1005.58
2022-07-31T13:06:41.562Z,1005.50
2022-07-31T13:10:19.029Z,1005.49
2022-07-31T13:12:55.040Z,1005.48
2022-07-31T13:16:02.523Z,1005.39
2022-07-31T13:19:10.794Z,1005.39
2022-07-31T13:22:18.746Z,1005.28
2022-07-31T13:25:26.265Z,1005.23
2022-07-31T13:28:34.553Z,1005.23
2022-07-31T13:31:42.579Z,1005.17
2022-07-31T13:35:19.570Z,1005.16
2022-07-31T13:37:56.086Z,1005.04
2022-07-31T13:41:04.029Z,1005.06
2022-07-31T13:44:11.988Z,1005.04
2022-07-31T13:47:20.056Z,1005.04
2022-07-31T13:50:27.889Z,1005.01
2022-07-31T13:53:35.700Z,1004.87
2022-07-31T13:56:44.342Z,1004.90
2022-07-31T13:59:52.059Z,1004.90
2022-07-31T14:03:00.036Z,1004.94
2022-07-31T14:06:07.777Z,1004.87
2022-07-31T14:09:15.830Z,1004.84
2022-07-31T14:12:23.706Z,1004.78
2022-07-31T14:15:31.691Z,1004.76
2022-07-31T14:18:40.019Z,1004.74
2022-07-31T14:21:50.155Z,1004.69
2022-07-31T14:24:53.023Z,1004.59
2022-07-31T14:28:01.075Z,1004.62
2022-07-31T14:31:08.615Z,1004.58
2022-07-31T14:34:17.016Z,1004.64
2022-07-31T14:37:24.988Z,1004.68
2022-07-31T14:40:32.631Z,1004.66
2022-07-31T14:43:40.812Z,1004.57
2022-07-31T14:46:48.804Z,1004.59
2022-07-31T14:50:09.525Z,1004.56
2022-07-31T14:53:02.296Z,1004.68
2022-07-31T14:56:09.848Z,1004.62
2022-07-31T14:59:18.220Z,1004.61
2022-07-31T15:02:26.519Z,1004.73
2022-07-31T15:06:41.247Z,1004.65
2022-07-31T15:08:39.825Z,1004.72
2022-07-31T15:11:59.128Z,1004.75
2022-07-31T15:14:52.939Z,1004.73
2022-07-31T15:18:01.238Z,1004.72
2022-07-31T15:21:08.640Z,1004.68
2022-07-31T15:24:16.660Z,1004.72
2022-07-31T15:27:25.293Z,1004.66
2022-07-31T15:30:32.984Z,1004.64
2022-07-31T15:33:41.314Z,1004.67
2022-07-31T15:36:49.999Z,1004.59
2022-07-31T15:40:02.527Z,1004.61
2022-07-31T15:43:00.677Z,1004.61
2022-07-31T15:46:08.888Z,1004.59
2022-07-31T15:49:17.190Z,1004.56
2022-07-31T15:52:24.797Z,1004.55
2022-07-31T15:55:32.922Z,1004.52
2022-07-31T15:58:40.902Z,1004.50
2022-07-31T16:01:48.620Z,1004.48
2022-07-31T16:04:59.688Z,1004.49
2022-07-31T16:08:32.246Z,1004.45
2022-07-31T16:11:04.118Z,1004.44
2022-07-31T16:14:12.189Z,1004.41
2022-07-31T16:17:20.363Z,1004.39
2022-07-31T16:20:28.694Z,1004.47
2022-07-31T16:23:36.915Z,1004.40
2022-07-31T16:26:44.177Z,1004.37
2022-07-31T16:29:59.024Z,1004.36
2022-07-31T16:32:52.416Z,1004.43
2022-07-31T16:35:59.592Z,1004.47
2022-07-31T16:39:19.936Z,1004.47
2022-07-31T16:42:12.363Z,1004.55
2022-07-31T16:45:20.617Z,1004.61
2022-07-31T16:48:28.778Z,1004.69
2022-07-31T16:51:36.248Z,1004.66
2022-07-31T16:54:44.460Z,1004.78
2022-07-31T16:57:53.071Z,1004.79
2022-07-31T17:01:01.181Z,1004.87
2022-07-31T17:04:09.374Z,1004.89
2022-07-31T17:07:17.213Z,1004.93
2022-07-31T17:10:25.215Z,1004.94
2022-07-31T17:13:35.236Z,1005.04
2022-07-31T17:16:47.143Z,1005.14
2022-07-31T17:19:47.421Z,1005.16
2022-07-31T17:22:55.224Z,1005.12
2022-07-31T17:26:03.482Z,1005.22
2022-07-31T17:29:11.454Z,1005.36
2022-07-31T17:32:19.084Z,1005.54
2022-07-31T17:35:27.262Z,1005.73
2022-07-31T17:38:34.544Z,1005.78
2022-07-31T17:41:42.640Z,1005.77
2022-07-31T17:44:54.652Z,1005.72
2022-07-31T17:48:03.287Z,1005.67
2022-07-31T17:50:59.151Z,1005.63
2022-07-31T17:54:07.912Z,1005.57
2022-07-31T17:57:16.892Z,1005.52
2022-07-31T18:00:27.387Z,1005.45
2022-07-31T18:03:28.603Z,1005.40
2022-07-31T18:06:36.665Z,1005.36
2022-07-31T18:09:44.887Z,1005.39
2022-07-31T18:12:57.701Z,1005.34
2022-07-31T18:15:55.538Z,1005.40
2022-07-31T18:19:03.479Z,1005.33
2022-07-31T18:22:10.693Z,1005.24
2022-07-31T18:25:19.201Z,1005.24
2022-07-31T18:28:26.913Z,1005.24
2022-07-31T18:31:36.109Z,1005.23
2022-07-31T18:34:43.455Z,1005.23
2022-07-31T18:37:50.999Z,1005.21
2022-07-31T18:40:58.929Z,1005.18
2022-07-31T18:44:06.680Z,1005.15
2022-07-31T18:47:13.971Z,1005.29
2022-07-31T18:50:59.944Z,1005.31
2022-07-31T18:53:27.053Z,1005.30
2022-07-31T18:56:35.284Z,1005.29
2022-07-31T18:59:42.911Z,1005.30
2022-07-31T19:02:50.573Z,1005.30
2022-07-31T19:05:58.245Z,1005.32
2022-07-31T19:09:05.543Z,1005.31
2022-07-31T19:12:13.529Z,1005.32
2022-07-31T19:15:21.868Z,1005.32
2022-07-31T19:18:29.258Z,1005.33
2022-07-31T19:21:42.471Z,1005.36
2022-07-31T19:24:40.131Z,1005.32
2022-07-31T19:27:50.237Z,1005.39
2022-07-31T19:30:58.457Z,1005.37
2022-07-31T19:34:06.923Z,1005.35
2022-07-31T19:37:14.625Z,1005.32
2022-07-31T19:40:23.206Z,1005.25
2022-07-31T19:43:31.018Z,1005.25
2022-07-31T19:46:38.769Z,1005.19
2022-07-31T19:49:46.799Z,1005.25
2022-07-31T19:52:54.492Z,1005.19
2022-07-31T19:56:02.245Z,1005.12
2022-07-31T19:59:10.177Z,1005.12
2022-07-31T20:02:17.861Z,1005.14
2022-07-31T20:05:25.665Z,1005.08
2022-07-31T20:08:33.883Z,1005.03
2022-07-31T20:11:42.208Z,1005.02
2022-07-31T20:14:50.077Z,1005.06
2022-07-31T20:17:58.191Z,1005.00
2022-07-31T20:21:06.290Z,1004.97
2022-07-31T20:24:14.261Z,1004.86
2022-07-31T20:27:22.138Z,1004.91
2022-07-31T20:30:30.142Z,1004.85
2022-07-31T20:33:37.584Z,1004.93
2022-07-31T20:36:45.783Z,1005.07
2022-07-31T20:39:54.035Z,1004.98
2022-07-31T20:43:01.559Z,1005.00
2022-07-31T20:46:09.770Z,1004.94
2022-07-31T20:49:19.607Z,1005.01
2022-07-31T20:52:22.842Z,1004.94
2022-07-31T20:55:31.041Z,1004.98
2022-07-31T20:58:39.037Z,1004.99
2022-07-31T21:01:46.573Z,1005.00
2022-07-31T21:04:54.843Z,1004.95
2022-07-31T21:08:02.705Z,1005.03
2022-07-31T21:11:10.608Z,1005.00
2022-07-31T21:14:18.834Z,1005.02
2022-07-31T21:17:26.177Z,1004.96
2022-07-31T21:20:50.157Z,1005.01
2022-07-31T21:23:39.140Z,1005.01
2022-07-31T21:26:47.750Z,1004.99
2022-07-31T21:29:48.163Z,1005.02
2022-07-31T21:32:56.055Z,1004.93
2022-07-31T21:36:04.373Z,1004.91
2022-07-31T21:39:18.578Z,1004.97
2022-07-31T21:42:15.801Z,1004.95
2022-07-31T21:45:23.678Z,1004.97
2022-07-31T21:48:33.166Z,1004.92
2022-07-31T21:51:41.261Z,1004.92
2022-07-31T21:54:49.153Z,1004.93
2022-07-31T21:57:59.185Z,1004.87
2022-07-31T22:00:57.596Z,1004.86
2022-07-31T22:04:05.370Z,1004.90
2022-07-31T22:07:13.385Z,1004.90
2022-07-31T22:10:21.228Z,1004.92
2022-07-31T22:13:29.077Z,1004.98
2022-07-31T22:16:37.111Z,1004.89
2022-07-31T22:19:47.391Z,1004.90
2022-07-31T22:22:55.661Z,1004.92
2022-07-31T22:26:03.485Z,1004.87
2022-07-31T22:29:11.352Z,1004.83
2022-07-31T22:32:15.634Z,1004.82
2022-07-31T22:35:22.967Z,1004.86
2022-07-31T22:38:31.127Z,1004.87
2022-07-31T22:41:39.177Z,1004.96
2022-07-31T22:44:46.889Z,1004.92
2022-07-31T22:47:54.776Z,1004.97
2022-07-31T22:51:02.861Z,1004.94
2022-07-31T22:54:10.801Z,1004.93
2022-07-31T22:57:18.462Z,1004.97
2022-07-31T23:00:27.793Z,1004.99
2022-07-31T23:03:36.004Z,1005.03
2022-07-31T23:06:43.905Z,1005.03
2022-07-31T23:09:51.726Z,1004.96
2022-07-31T23:13:00.188Z,1005.09
2022-07-31T23:16:08.268Z,1005.04
2022-07-31T23:19:16.172Z,1005.06
2022-07-31T23:22:33.346Z,1005.08
2022-07-31T23:25:29.411Z,1005.12
2022-07-31T23:28:37.841Z,1005.08
2022-07-31T23:31:45.850Z,1005.14
2022-07-31T23:34:53.262Z,1005.12
2022-07-31T23:38:01.456Z,1005.12
2022-07-31T23:41:09.242Z,1005.10
2022-07-31T23:44:24.885Z,1005.06
2022-07-31T23:47:21.919Z,1005.02
2022-07-31T23:50:30.418Z,1005.02
2022-07-31T23:53:38.218Z,1005.03
2022-07-31T23:56:46.460Z,1004.98
2022-07-31T23:59:54.141Z,1005.01
